Armavir, Russia

6:41 AM MSK on February 10, 2016 (GMT +0300)
Shpakovskoye | | Change Station
CLOSE
Current Station
Airport
Location: Stavropol',
Elevation: 1483 ft
Nearby Weather Stations

Elev 1483 ft 45.12 °N, 42.08 °E | Updated 11 minutes ago

Light Freezing Drizzle
Freezing Drizzle Freezing Fog
25 °F
Feels Like 12 °F
N
16
Wind Variable Wind from SE

Today
High -- | Low -- °F
--% Chance of Precip.
Yesterday
High -- | Low -- °F
Precip. -- in
Pressure 30.24 in
Visibility 0.4 miles
Clouds
Windchill 12 °F
Dew Point 25 °F
Humidity 100%
Rainfall 0.00 in
Snow Depth Not available.
7:24 AM 5:35 PM
Waxing Crescent, 3% visible
METAR URMT 100330Z 14007MPS 0700 0600NE R07/1600N FZDZ FZFG VV002 M04/M04 Q1024 R07/110060 NOSIG RMK QBB060 OBST OBSC QFE728
Pressure 30.24 in
Visibility 0.4 miles
Clouds
Windchill 12 °F
Dew Point 25 °F
Humidity 100%
Rainfall 0.00 in
Snow Depth Not available.
7:24 AM 5:35 PM
Waxing Crescent, 3% visible
METAR URMT 100330Z 14007MPS 0700 0600NE R07/1600N FZDZ FZFG VV002 M04/M04 Q1024 R07/110060 NOSIG RMK QBB060 OBST OBSC QFE728

10-Day Weather Forecast

Almanac

Astronomy

Feb. 10, 2016 Rise Set
Actual Time
Civil Twilight
Nautical Twilight
Astronomical Twilight
Moon
Length of Visible Light
Length of Day
Tomorrow will be .
, % of the Moon is Illuminated

Today's Extremes

Country Highs Country Lows

Community

WunderPhotos

Upload Photos

1,891,792 photos uploaded!

WunderBlog® & News

Nearby

Air Quality

  Air Quality AQ Index Pollutant
Not available.

Snow Depth

Station Depth Elevation

Earthquake Activity

City Distance Mag. Time & Date
Minimum magnitude displayed is 2.5.

Coastal Water Temperatures

Place Temperature

Stations

Nearby Weather Stations

Station Location Temp. Windchill Dew Point Humidity Wind Precip. Elev Updated Type